createdAt,value
2019-06-26T00:01:41.123Z,95921.39
2019-06-26T00:04:11.279Z,95924.59
2019-06-26T00:06:41.230Z,95919.36
2019-06-26T00:09:11.322Z,95918.34
2019-06-26T00:11:41.310Z,95921.14
2019-06-26T00:14:11.644Z,95920.63
2019-06-26T00:16:42.005Z,95925.02
2019-06-26T00:19:11.958Z,95924.53
2019-06-26T00:21:42.012Z,95924.55
2019-06-26T00:24:12.030Z,95923.81
2019-06-26T00:26:42.019Z,95929.06
2019-06-26T00:29:12.040Z,95927.32
2019-06-26T00:31:42.030Z,95927.81
2019-06-26T00:34:12.202Z,95926.96
2019-06-26T00:36:42.183Z,95926.46
2019-06-26T00:39:12.270Z,95925.82
2019-06-26T00:41:42.263Z,95932.38
2019-06-26T00:44:12.279Z,95930.25
2019-06-26T00:46:42.326Z,95932.70
2019-06-26T00:49:12.345Z,95932.19
2019-06-26T00:51:42.397Z,95933.30
2019-06-26T00:54:12.414Z,95930.64
2019-06-26T00:56:42.395Z,95930.75
2019-06-26T00:59:12.415Z,95934.35
2019-06-26T01:01:42.500Z,95927.58
2019-06-26T01:04:14.126Z,95933.95
2019-06-26T01:06:44.335Z,95929.66
2019-06-26T01:09:15.889Z,95930.39
2019-06-26T01:11:46.179Z,95930.11
2019-06-26T01:14:16.022Z,95929.16
2019-06-26T01:16:46.132Z,95930.50
2019-06-26T01:19:16.039Z,95926.31
2019-06-26T01:21:46.128Z,95933.59
2019-06-26T01:24:16.043Z,95924.34
2019-06-26T01:26:46.574Z,95925.47
2019-06-26T01:29:16.564Z,95928.96
2019-06-26T01:31:47.646Z,95926.72
2019-06-26T01:34:17.634Z,95925.28
2019-06-26T01:36:47.641Z,95929.47
2019-06-26T01:39:17.617Z,95938.30
2019-06-26T01:41:47.704Z,95927.54
2019-06-26T01:44:17.623Z,95931.44
2019-06-26T01:46:47.643Z,95930.28
2019-06-26T01:49:18.656Z,95929.73
2019-06-26T01:51:48.642Z,95934.41
2019-06-26T01:54:20.039Z,95931.31
2019-06-26T01:56:50.031Z,95929.88
2019-06-26T01:59:20.050Z,95931.53
2019-06-26T02:01:50.140Z,95933.87
2019-06-26T02:04:21.230Z,95935.09
2019-06-26T02:06:51.341Z,95935.48
2019-06-26T02:09:22.612Z,95937.61
2019-06-26T02:11:52.923Z,95938.22
2019-06-26T02:14:31.162Z,95937.39
2019-06-26T02:16:54.795Z,95941.89
2019-06-26T02:19:24.775Z,95941.38
2019-06-26T02:21:54.801Z,95947.02
2019-06-26T02:24:24.799Z,95949.57
2019-06-26T02:26:54.813Z,95947.52
2019-06-26T02:29:24.736Z,95953.55
2019-06-26T02:31:54.647Z,95959.88
2019-06-26T02:34:24.594Z,95961.03
2019-06-26T02:36:54.962Z,95960.09
2019-06-26T02:39:24.948Z,95955.16
2019-06-26T02:41:55.428Z,95951.88
2019-06-26T02:44:25.334Z,95960.76
2019-06-26T02:47:17.269Z,95957.09
2019-06-26T02:49:27.557Z,95959.64
2019-06-26T02:51:57.575Z,95954.09
2019-06-26T02:54:27.568Z,95954.47
2019-06-26T02:56:57.569Z,95955.80
2019-06-26T02:59:27.559Z,95951.26
2019-06-26T03:01:57.683Z,95960.48
2019-06-26T03:04:27.732Z,95958.85
2019-06-26T03:06:57.749Z,95956.08
2019-06-26T03:09:27.845Z,95958.30
2019-06-26T03:11:57.797Z,95959.39
2019-06-26T03:14:27.784Z,95958.77
2019-06-26T03:16:57.806Z,95957.35
2019-06-26T03:19:27.858Z,95952.86
2019-06-26T03:21:57.873Z,95952.63
2019-06-26T03:24:27.861Z,95954.34
2019-06-26T03:26:57.884Z,95952.19
2019-06-26T03:29:27.857Z,95950.97
2019-06-26T03:31:57.872Z,95961.77
2019-06-26T03:34:27.942Z,95960.97
2019-06-26T03:36:58.350Z,95961.37
2019-06-26T03:39:28.181Z,95959.42
2019-06-26T03:41:58.204Z,95956.65
2019-06-26T03:44:28.153Z,95960.97
2019-06-26T03:46:58.425Z,95964.95
2019-06-26T03:49:28.480Z,95957.77
2019-06-26T03:51:58.735Z,95966.84
2019-06-26T03:54:28.730Z,95964.72
2019-06-26T03:56:58.960Z,95969.71
2019-06-26T03:59:28.976Z,95974.06
2019-06-26T04:01:59.108Z,95975.33
2019-06-26T04:04:29.614Z,95976.33
2019-06-26T04:06:59.762Z,95973.47
2019-06-26T04:09:29.740Z,95978.90
2019-06-26T04:11:59.900Z,95978.11
2019-06-26T04:14:29.890Z,95981.95
2019-06-26T04:17:00.377Z,95984.72
2019-06-26T04:19:30.341Z,95984.72
2019-06-26T04:22:00.911Z,95980.97
2019-06-26T04:24:30.831Z,95982.83
2019-06-26T04:27:00.851Z,95978.22
2019-06-26T04:29:30.790Z,95977.05
2019-06-26T04:32:00.774Z,95977.67
2019-06-26T04:34:30.729Z,95978.53
2019-06-26T04:37:00.714Z,95979.26
2019-06-26T04:39:30.734Z,95981.34
2019-06-26T04:42:00.950Z,95977.78
2019-06-26T04:44:31.197Z,95985.70
2019-06-26T04:47:01.173Z,95985.80
2019-06-26T04:49:31.115Z,95986.28
2019-06-26T04:52:01.029Z,95980.77
2019-06-26T04:54:31.691Z,95986.90
2019-06-26T04:57:01.666Z,95989.79
2019-06-26T04:59:31.687Z,95985.69
2019-06-26T05:02:02.950Z,95998.92
2019-06-26T05:04:33.412Z,95998.02
2019-06-26T05:07:03.496Z,95991.55
2019-06-26T05:09:33.706Z,95991.02
2019-06-26T05:12:03.791Z,95990.45
2019-06-26T05:14:34.329Z,95995.88
2019-06-26T05:17:04.303Z,95992.56
2019-06-26T05:19:34.320Z,95995.73
2019-06-26T05:22:04.511Z,95997.66
2019-06-26T05:24:34.457Z,95999.17
2019-06-26T05:27:04.482Z,96000.73
2019-06-26T05:29:34.466Z,95999.45
2019-06-26T05:32:04.551Z,96000.91
2019-06-26T05:34:34.475Z,96004.44
2019-06-26T05:37:04.722Z,95995.17
2019-06-26T05:39:34.719Z,96006.00
2019-06-26T05:42:06.827Z,96009.84
2019-06-26T05:44:36.479Z,96008.09
2019-06-26T05:47:07.305Z,96016.08
2019-06-26T05:49:37.668Z,96015.89
2019-06-26T05:52:08.140Z,96012.81
2019-06-26T05:54:38.128Z,96012.63
2019-06-26T05:57:08.142Z,96012.80
2019-06-26T05:59:38.267Z,96024.65
2019-06-26T06:02:08.690Z,96020.56
2019-06-26T06:04:38.673Z,96024.91
2019-06-26T06:07:08.694Z,96027.13
2019-06-26T06:09:38.701Z,96031.83
2019-06-26T06:12:09.124Z,96037.41
2019-06-26T06:14:39.323Z,96037.44
2019-06-26T06:17:09.326Z,96043.18
2019-06-26T06:19:39.387Z,96040.98
2019-06-26T06:22:09.335Z,96038.17
2019-06-26T06:24:39.362Z,96034.09
2019-06-26T06:27:09.357Z,96037.03
2019-06-26T06:29:39.278Z,96041.62
2019-06-26T06:32:09.328Z,96037.99
2019-06-26T06:34:39.355Z,96049.73
2019-06-26T06:37:09.381Z,96048.48
2019-06-26T06:39:39.544Z,96049.59
2019-06-26T06:42:09.534Z,96049.71
2019-06-26T06:44:39.569Z,96052.96
2019-06-26T06:47:09.584Z,96053.92
2019-06-26T06:49:39.907Z,96053.05
2019-06-26T06:52:09.902Z,96057.55
2019-06-26T06:54:39.926Z,96052.74
2019-06-26T06:57:09.906Z,96056.36
2019-06-26T06:59:40.140Z,96055.98
2019-06-26T07:02:11.304Z,96062.52
2019-06-26T07:04:41.345Z,96065.44
2019-06-26T07:07:11.311Z,96067.86
2019-06-26T07:09:41.262Z,96067.63
2019-06-26T07:12:11.323Z,96068.78
2019-06-26T07:14:41.338Z,96067.40
2019-06-26T07:17:20.386Z,96069.65
2019-06-26T07:19:43.603Z,96069.89
2019-06-26T07:22:13.601Z,96063.16
2019-06-26T07:24:43.463Z,96068.71
2019-06-26T07:27:13.455Z,96071.10
2019-06-26T07:29:43.332Z,96072.31
2019-06-26T07:32:14.692Z,96074.09
2019-06-26T07:34:44.703Z,96072.12
2019-06-26T07:37:14.756Z,96078.61
2019-06-26T07:39:44.775Z,96074.87
2019-06-26T07:42:14.758Z,96079.85
2019-06-26T07:44:45.015Z,96075.92
2019-06-26T07:47:22.854Z,96078.43
2019-06-26T07:49:46.762Z,96081.34
2019-06-26T07:52:16.921Z,96078.06
2019-06-26T07:54:46.931Z,96074.67
2019-06-26T07:57:17.179Z,96085.80
2019-06-26T07:59:47.268Z,96085.38
2019-06-26T08:02:17.344Z,96085.50
2019-06-26T08:04:47.395Z,96087.00
2019-06-26T08:07:17.515Z,96087.39
2019-06-26T08:09:47.551Z,96083.75
2019-06-26T08:12:17.533Z,96089.88
2019-06-26T08:14:47.542Z,96083.17
2019-06-26T08:17:17.779Z,96085.45
2019-06-26T08:19:47.971Z,96083.35
2019-06-26T08:22:17.991Z,96083.55
2019-06-26T08:24:47.946Z,96087.17
2019-06-26T08:27:17.935Z,96088.78
2019-06-26T08:29:47.951Z,96085.35
2019-06-26T08:32:17.863Z,96091.00
2019-06-26T08:34:47.810Z,96092.45
2019-06-26T08:37:17.816Z,96096.84
2019-06-26T08:39:47.896Z,96095.77
2019-06-26T08:42:17.802Z,96086.42
2019-06-26T08:44:47.746Z,96083.75
2019-06-26T08:47:17.769Z,96087.01
2019-06-26T08:52:37.859Z,96089.28
2019-06-26T08:55:09.315Z,96089.92
2019-06-26T08:57:39.406Z,96088.42
2019-06-26T09:00:11.409Z,96080.92
2019-06-26T09:02:41.416Z,96084.50
2019-06-26T09:05:13.501Z,96090.44
2019-06-26T09:07:43.526Z,96090.47
2019-06-26T09:10:13.922Z,96092.98
2019-06-26T09:12:45.601Z,96098.18
2019-06-26T09:15:16.462Z,96095.39
2019-06-26T09:17:46.419Z,96093.04
2019-06-26T09:20:19.310Z,96088.70
2019-06-26T09:22:49.036Z,96090.36
2019-06-26T09:25:21.965Z,96093.09
2019-06-26T09:27:50.658Z,96090.15
2019-06-26T09:30:21.332Z,96091.00
2019-06-26T09:32:51.617Z,96092.35
2019-06-26T09:35:22.697Z,96096.41
2019-06-26T09:37:52.725Z,96093.17
2019-06-26T09:40:23.203Z,96092.11
2019-06-26T09:42:53.293Z,96094.83
2019-06-26T09:45:23.283Z,96096.19
2019-06-26T09:47:53.780Z,96097.30
2019-06-26T09:50:23.769Z,96098.94
2019-06-26T09:52:54.235Z,96104.91
2019-06-26T09:55:24.234Z,96104.91
2019-06-26T09:57:54.242Z,96100.86
2019-06-26T10:00:24.531Z,96099.49
2019-06-26T10:02:54.696Z,96103.84
2019-06-26T10:05:24.684Z,96098.41
2019-06-26T10:07:54.600Z,96099.75
2019-06-26T10:10:24.715Z,96098.94
2019-06-26T10:12:54.707Z,96099.47
2019-06-26T10:15:24.954Z,96097.31
2019-06-26T10:17:55.079Z,96097.03
2019-06-26T10:20:29.919Z,96096.19
2019-06-26T10:23:00.389Z,96091.28
2019-06-26T10:25:33.045Z,96096.72
2019-06-26T10:28:05.587Z,96089.37
2019-06-26T10:30:37.538Z,96088.52
2019-06-26T10:33:10.914Z,96088.48
2019-06-26T10:35:41.803Z,96087.94
2019-06-26T10:38:11.869Z,96091.21
2019-06-26T10:40:41.942Z,96093.61
2019-06-26T10:43:11.930Z,96092.46
2019-06-26T10:45:42.029Z,96088.63
2019-06-26T10:48:12.081Z,96087.52
2019-06-26T10:50:49.905Z,96083.97
2019-06-26T10:53:13.946Z,96090.75
2019-06-26T10:55:44.428Z,96087.75
2019-06-26T10:58:14.495Z,96086.89
2019-06-26T11:00:45.493Z,96083.59
2019-06-26T11:03:15.467Z,96085.47
2019-06-26T11:05:45.506Z,96083.52
2019-06-26T11:08:15.370Z,96080.39
2019-06-26T11:10:45.484Z,96076.00
2019-06-26T11:13:16.556Z,96069.88
2019-06-26T11:15:46.650Z,96071.31
2019-06-26T11:18:23.630Z,96069.77
2019-06-26T11:20:57.501Z,96067.47
2019-06-26T11:23:29.815Z,96069.59
2019-06-26T11:26:03.147Z,96073.59
2019-06-26T11:28:36.072Z,96066.17
2019-06-26T11:31:06.265Z,96071.59
2019-06-26T11:33:39.342Z,96065.31
2019-06-26T11:36:12.489Z,96064.64
2019-06-26T11:38:44.480Z,96064.64
2019-06-26T11:41:14.782Z,96068.42
2019-06-26T11:43:47.833Z,96066.76
2019-06-26T11:46:19.491Z,96066.76
2019-06-26T11:48:51.168Z,96059.22
2019-06-26T11:51:21.516Z,96058.30
2019-06-26T11:53:52.504Z,96058.30
2019-06-26T11:56:25.318Z,96054.95
2019-06-26T11:58:58.507Z,96054.95
2019-06-26T12:01:31.290Z,96053.66
2019-06-26T12:04:03.484Z,96056.08
2019-06-26T12:06:36.423Z,96043.56
2019-06-26T12:09:10.112Z,96043.56
2019-06-26T12:11:42.726Z,96042.20
2019-06-26T12:14:17.558Z,96042.20
2019-06-26T12:16:53.467Z,96032.58
2019-06-26T12:19:27.382Z,96034.22
2019-06-26T12:22:00.663Z,96034.22
2019-06-26T12:24:33.601Z,96037.72
2019-06-26T12:27:06.511Z,96031.91
2019-06-26T12:29:37.655Z,96031.25
2019-06-26T12:32:11.310Z,96027.70
2019-06-26T12:34:45.235Z,96027.38
2019-06-26T12:37:17.370Z,96027.38
2019-06-26T12:39:48.535Z,96025.75
2019-06-26T12:42:18.901Z,96016.30
2019-06-26T12:44:49.316Z,96015.83
2019-06-26T12:47:19.635Z,96012.59
2019-06-26T12:49:52.656Z,96009.53
2019-06-26T12:52:23.449Z,96009.53
2019-06-26T12:54:53.531Z,96017.36
2019-06-26T12:57:23.497Z,96019.88
2019-06-26T12:59:57.811Z,96011.39
2019-06-26T13:02:25.432Z,96010.72
2019-06-26T13:04:55.422Z,96010.82
2019-06-26T13:07:25.847Z,96007.77
2019-06-26T13:09:55.836Z,96004.19
2019-06-26T13:12:25.850Z,96008.56
2019-06-26T13:14:55.846Z,96005.43
2019-06-26T13:17:26.371Z,96006.95
2019-06-26T13:19:56.410Z,95988.70
2019-06-26T13:22:26.445Z,96006.03
2019-06-26T13:25:01.038Z,96005.22
2019-06-26T13:28:03.233Z,96004.45
2019-06-26T13:30:39.674Z,95997.66
2019-06-26T13:33:09.911Z,96001.38
2019-06-26T13:35:40.021Z,96003.57
2019-06-26T13:38:13.369Z,96003.67
2019-06-26T13:40:44.036Z,96007.67
2019-06-26T13:43:16.700Z,96007.67
2019-06-26T13:45:52.542Z,96002.52
2019-06-26T13:48:26.558Z,96002.87
2019-06-26T13:51:09.219Z,96003.34
2019-06-26T13:53:37.572Z,96004.21
2019-06-26T13:56:08.827Z,96003.70
2019-06-26T13:58:40.779Z,96003.70
2019-06-26T14:01:10.983Z,96000.58
2019-06-26T14:03:45.507Z,96003.27
2019-06-26T14:06:20.034Z,95997.84
2019-06-26T14:08:55.487Z,95988.38
2019-06-26T14:11:32.372Z,95997.27
2019-06-26T14:14:03.656Z,95998.17
2019-06-26T14:16:33.673Z,95994.95
2019-06-26T14:19:04.562Z,95993.39
2019-06-26T14:21:36.170Z,95988.97
2019-06-26T14:24:06.881Z,95988.37
2019-06-26T14:26:37.068Z,95991.64
2019-06-26T14:29:20.022Z,95988.78
2019-06-26T14:31:39.121Z,95980.32
2019-06-26T14:34:11.379Z,95983.55
2019-06-26T14:36:41.333Z,95986.92
2019-06-26T14:39:11.395Z,95984.91
2019-06-26T14:41:41.817Z,95988.77
2019-06-26T14:44:13.299Z,95987.28
2019-06-26T14:46:44.273Z,95983.41
2019-06-26T14:49:14.394Z,95985.02
2019-06-26T14:51:47.715Z,95984.31
2019-06-26T14:54:16.131Z,95974.72
2019-06-26T14:56:47.847Z,95968.03
2019-06-26T14:59:17.927Z,95972.81
2019-06-26T15:01:53.779Z,95969.41
2019-06-26T15:04:26.580Z,95967.73
2019-06-26T15:06:56.991Z,95959.45
2019-06-26T15:09:27.001Z,95957.54
2019-06-26T15:11:57.459Z,95957.18
2019-06-26T15:14:28.704Z,95953.05
2019-06-26T15:16:59.146Z,95955.27
2019-06-26T15:19:29.218Z,95957.72
2019-06-26T15:21:59.375Z,95957.14
2019-06-26T15:24:29.398Z,95949.86
2019-06-26T15:26:59.386Z,95952.26
2019-06-26T15:29:29.345Z,95955.12
2019-06-26T15:31:59.449Z,95943.63
2019-06-26T15:34:31.247Z,95944.20
2019-06-26T15:37:01.715Z,95942.43
2019-06-26T15:39:32.399Z,95942.43
2019-06-26T15:42:02.987Z,95936.28
2019-06-26T15:44:33.418Z,95934.38
2019-06-26T15:47:03.682Z,95931.66
2019-06-26T15:49:34.371Z,95931.34
2019-06-26T15:52:14.878Z,95928.47
2019-06-26T15:54:38.187Z,95928.88
2019-06-26T15:57:14.676Z,95930.20
2019-06-26T15:59:44.852Z,95927.98
2019-06-26T16:02:15.141Z,95927.66
2019-06-26T16:04:45.273Z,95932.16
2019-06-26T16:07:15.304Z,95927.61
2019-06-26T16:09:45.608Z,95920.79
2019-06-26T16:12:15.686Z,95920.79
2019-06-26T16:14:46.000Z,95922.33
2019-06-26T16:17:17.734Z,95925.38
2019-06-26T16:19:48.229Z,95923.97
2019-06-26T16:22:31.603Z,95927.02
2019-06-26T16:24:51.465Z,95927.02
2019-06-26T16:27:23.661Z,95924.61
2019-06-26T16:29:53.752Z,95920.05
2019-06-26T16:32:35.326Z,95922.73
2019-06-26T16:35:08.073Z,95923.55
2019-06-26T16:37:39.130Z,95923.13
2019-06-26T16:40:09.746Z,95922.44
2019-06-26T16:42:40.368Z,95923.80
2019-06-26T16:45:10.955Z,95921.90
2019-06-26T16:47:41.146Z,95920.96
2019-06-26T16:50:12.363Z,95923.77
2019-06-26T16:52:49.011Z,95923.77
2019-06-26T16:55:15.265Z,95919.83
2019-06-26T16:57:45.571Z,95917.42
2019-06-26T17:00:16.681Z,95914.15
2019-06-26T17:02:46.806Z,95914.15
2019-06-26T17:05:17.723Z,95911.42
2019-06-26T17:07:47.775Z,95915.04
2019-06-26T17:10:18.780Z,95911.57
2019-06-26T17:12:48.832Z,95916.28
2019-06-26T17:15:19.255Z,95916.28
2019-06-26T17:17:49.271Z,95919.03
2019-06-26T17:20:19.280Z,95916.86
2019-06-26T17:23:04.632Z,95917.78
2019-06-26T17:25:21.017Z,95913.55
2019-06-26T17:27:50.945Z,95920.12
2019-06-26T17:30:20.974Z,95920.91
2019-06-26T17:32:51.593Z,95926.33
2019-06-26T17:35:21.622Z,95926.33
2019-06-26T17:37:52.099Z,95930.97
2019-06-26T17:40:22.594Z,95926.03
2019-06-26T17:43:08.217Z,95918.16
2019-06-26T17:45:26.110Z,95915.55
2019-06-26T17:47:56.100Z,95917.45
2019-06-26T17:50:26.123Z,95914.64
2019-06-26T17:52:56.110Z,95914.64
2019-06-26T17:55:26.576Z,95920.73
2019-06-26T17:57:56.529Z,95913.55
2019-06-26T18:00:32.438Z,95915.23
2019-06-26T18:03:02.469Z,95915.30
2019-06-26T18:05:32.450Z,95916.71
2019-06-26T18:08:02.401Z,95916.88
2019-06-26T18:10:32.404Z,95916.88
2019-06-26T18:13:02.531Z,95922.71
2019-06-26T18:15:32.500Z,95927.42
2019-06-26T18:18:02.523Z,95928.06
2019-06-26T18:20:32.739Z,95924.30
2019-06-26T18:23:07.381Z,95930.59
2019-06-26T18:25:34.720Z,95925.77
2019-06-26T18:28:04.749Z,95926.89
2019-06-26T18:30:34.772Z,95925.00
2019-06-26T18:33:04.771Z,95920.71
2019-06-26T18:35:34.801Z,95922.36
2019-06-26T18:38:04.791Z,95921.81
2019-06-26T18:40:35.979Z,95925.08
2019-06-26T18:43:06.027Z,95928.05
2019-06-26T18:45:36.122Z,95923.98
2019-06-26T18:48:06.140Z,95925.59
2019-06-26T18:50:36.336Z,95931.02
2019-06-26T18:53:06.614Z,95936.64
2019-06-26T18:55:36.560Z,95930.92
2019-06-26T18:58:06.752Z,95934.95
2019-06-26T19:00:36.779Z,95932.51
2019-06-26T19:03:06.770Z,95935.39
2019-06-26T19:05:36.794Z,95939.66
2019-06-26T19:08:06.793Z,95937.17
2019-06-26T19:10:36.751Z,95937.66
2019-06-26T19:13:07.939Z,95939.70
2019-06-26T19:15:37.967Z,95943.70
2019-06-26T19:18:09.336Z,95939.82
2019-06-26T19:20:39.443Z,95943.00
2019-06-26T19:23:09.417Z,95939.60
2019-06-26T19:25:39.507Z,95945.48
2019-06-26T19:28:10.502Z,95942.98
2019-06-26T19:30:41.748Z,95952.09
2019-06-26T19:33:12.030Z,95953.06
2019-06-26T19:35:42.018Z,95959.42
2019-06-26T19:38:12.042Z,95958.77
2019-06-26T19:40:42.337Z,95962.20
2019-06-26T19:43:12.526Z,95967.26
2019-06-26T19:45:42.514Z,95970.11
2019-06-26T19:48:12.734Z,95970.30
2019-06-26T19:50:42.748Z,95971.29
2019-06-26T19:53:12.747Z,95974.39
2019-06-26T19:55:42.770Z,95971.83
2019-06-26T19:58:12.758Z,95975.23
2019-06-26T20:00:43.103Z,95967.59
2019-06-26T20:03:14.090Z,95966.16
2019-06-26T20:05:44.079Z,95966.34
2019-06-26T20:08:14.103Z,95967.27
2019-06-26T20:10:44.094Z,95965.02
2019-06-26T20:13:14.519Z,95965.21
2019-06-26T20:15:45.858Z,95964.55
2019-06-26T20:18:16.939Z,95965.78
2019-06-26T20:20:47.600Z,95959.46
2019-06-26T20:23:17.548Z,95963.20
2019-06-26T20:25:47.568Z,95958.52
2019-06-26T20:28:17.554Z,95959.09
2019-06-26T20:30:47.855Z,95959.88
2019-06-26T20:33:17.842Z,95954.66
2019-06-26T20:35:48.105Z,95957.50
2019-06-26T20:38:18.016Z,95953.53
2019-06-26T20:40:48.038Z,95956.92
2019-06-26T20:43:19.333Z,95953.06
2019-06-26T20:45:49.250Z,95955.89
2019-06-26T20:48:19.199Z,95954.02
2019-06-26T20:50:49.188Z,95960.97
2019-06-26T20:53:19.134Z,95959.49
2019-06-26T20:55:49.158Z,95958.08
2019-06-26T20:58:19.072Z,95956.41
2019-06-26T21:00:49.098Z,95955.84
2019-06-26T21:03:21.220Z,95953.59
2019-06-26T21:05:50.728Z,95958.58
2019-06-26T21:08:20.891Z,95956.62
2019-06-26T21:10:50.806Z,95955.14
2019-06-26T21:13:20.763Z,95954.70
2019-06-26T21:15:52.947Z,95952.02
2019-06-26T21:18:22.271Z,95956.78
2019-06-26T21:20:52.258Z,95960.11
2019-06-26T21:23:23.596Z,95966.69
2019-06-26T21:25:53.975Z,95959.30
2019-06-26T21:28:23.968Z,95961.63
2019-06-26T21:30:54.315Z,95962.92
2019-06-26T21:33:24.317Z,95962.00
2019-06-26T21:35:54.329Z,95967.10
2019-06-26T21:38:24.804Z,95965.10
2019-06-26T21:40:55.296Z,95963.35
2019-06-26T21:43:26.187Z,95965.11
2019-06-26T21:45:56.884Z,95965.52
2019-06-26T21:48:26.797Z,95970.54
2019-06-26T21:50:56.823Z,95974.41
2019-06-26T21:53:26.673Z,95970.06
2019-06-26T21:56:14.563Z,95968.15
2019-06-26T21:59:04.577Z,95969.69
2019-06-26T22:01:52.509Z,95969.91
2019-06-26T22:04:40.358Z,95975.10
2019-06-26T22:07:21.798Z,95970.44
2019-06-26T22:09:56.545Z,95973.06
2019-06-26T22:12:26.869Z,95965.94
2019-06-26T22:14:57.167Z,95966.39
2019-06-26T22:17:27.219Z,95962.03
2019-06-26T22:19:57.308Z,95962.55
2019-06-26T22:22:27.296Z,95961.89
2019-06-26T22:24:57.389Z,95961.16
2019-06-26T22:27:27.379Z,95959.48
2019-06-26T22:29:57.419Z,95966.34
2019-06-26T22:32:27.386Z,95967.99
2019-06-26T22:34:57.782Z,95966.28
2019-06-26T22:37:27.772Z,95967.56
2019-06-26T22:39:57.866Z,95963.84
2019-06-26T22:42:28.106Z,95962.72
2019-06-26T22:44:58.201Z,95968.14
2019-06-26T22:47:28.761Z,95960.27
2019-06-26T22:49:58.792Z,95965.28
2019-06-26T22:52:28.854Z,95966.41
2019-06-26T22:54:59.190Z,95967.50
2019-06-26T22:57:29.181Z,95964.52
2019-06-26T22:59:59.226Z,95967.14
2019-06-26T23:02:29.249Z,95964.33
2019-06-26T23:04:59.240Z,95957.62
2019-06-26T23:07:30.592Z,95961.30
2019-06-26T23:10:00.591Z,95963.44
2019-06-26T23:12:31.187Z,95963.31
2019-06-26T23:15:01.307Z,95963.31
2019-06-26T23:17:32.048Z,95959.84
2019-06-26T23:20:02.043Z,95963.11
2019-06-26T23:22:32.914Z,95954.63
2019-06-26T23:25:03.602Z,95959.92
2019-06-26T23:27:33.632Z,95958.95
2019-06-26T23:30:05.464Z,95952.33
2019-06-26T23:32:35.428Z,95957.86
2019-06-26T23:35:06.621Z,95960.10
2019-06-26T23:37:36.583Z,95959.39
2019-06-26T23:40:06.682Z,95954.20
2019-06-26T23:42:36.708Z,95953.17
2019-06-26T23:45:10.413Z,95956.52
2019-06-26T23:47:40.390Z,95951.91
2019-06-26T23:50:10.786Z,95952.97
2019-06-26T23:52:40.813Z,95951.94
2019-06-26T23:55:11.321Z,95949.47
2019-06-26T23:57:57.610Z,95942.42
